createdAt,value
2022-09-23T00:01:57.836Z,20.10
2022-09-23T00:04:24.255Z,20.10
2022-09-23T00:06:50.666Z,20.10
2022-09-23T00:09:17.056Z,20.10
2022-09-23T00:11:43.448Z,20.20
2022-09-23T00:14:09.886Z,20.10
2022-09-23T00:16:36.373Z,20.10
2022-09-23T00:19:02.774Z,20.10
2022-09-23T00:21:29.177Z,20.10
2022-09-23T00:23:55.572Z,20.10
2022-09-23T00:26:21.976Z,20.10
2022-09-23T00:28:48.369Z,20.10
2022-09-23T00:31:14.848Z,20.10
2022-09-23T00:33:41.281Z,20.10
2022-09-23T00:36:07.678Z,20.10
2022-09-23T00:38:34.100Z,20.10
2022-09-23T00:41:00.524Z,20.10
2022-09-23T00:43:26.998Z,20.10
2022-09-23T00:45:53.456Z,20.20
2022-09-23T00:48:19.949Z,20.10
2022-09-23T00:50:46.377Z,20.10
2022-09-23T00:53:12.761Z,20.10
2022-09-23T00:55:39.177Z,20.10
2022-09-23T00:58:05.579Z,20.10
2022-09-23T01:00:31.993Z,20.10
2022-09-23T01:02:58.380Z,20.10
2022-09-23T01:05:24.796Z,20.10
2022-09-23T01:07:51.196Z,20.10
2022-09-23T01:10:17.596Z,20.10
2022-09-23T01:12:44.001Z,20.10
2022-09-23T01:15:10.400Z,20.10
2022-09-23T01:17:36.802Z,20.10
2022-09-23T01:20:03.200Z,20.10
2022-09-23T01:22:29.610Z,20.10
2022-09-23T01:24:56.005Z,20.10
2022-09-23T01:27:22.414Z,20.10
2022-09-23T01:29:48.806Z,20.10
2022-09-23T01:32:15.196Z,20.10
2022-09-23T01:34:41.586Z,20.10
2022-09-23T01:37:07.981Z,20.00
2022-09-23T01:39:34.400Z,20.00
2022-09-23T01:42:00.787Z,20.10
2022-09-23T01:44:27.255Z,20.00
2022-09-23T01:46:53.662Z,20.00
2022-09-23T01:49:20.080Z,20.00
2022-09-23T01:51:46.500Z,20.10
2022-09-23T01:54:12.909Z,20.10
2022-09-23T01:56:39.311Z,20.00
2022-09-23T01:59:05.701Z,20.00
2022-09-23T02:01:32.129Z,20.00
2022-09-23T02:03:58.646Z,20.00
2022-09-23T02:06:25.041Z,20.00
2022-09-23T02:08:51.453Z,20.00
2022-09-23T02:11:17.847Z,20.10
2022-09-23T02:13:44.256Z,20.10
2022-09-23T02:16:10.728Z,20.10
2022-09-23T02:18:37.176Z,20.10
2022-09-23T02:21:03.576Z,20.10
2022-09-23T02:23:29.987Z,20.10
2022-09-23T02:25:56.381Z,20.10
2022-09-23T02:28:22.773Z,20.20
2022-09-23T02:30:49.163Z,20.10
2022-09-23T02:33:15.561Z,20.10
2022-09-23T02:35:41.961Z,20.10
2022-09-23T02:38:08.352Z,20.10
2022-09-23T02:40:34.806Z,20.10
2022-09-23T02:43:01.216Z,20.20
2022-09-23T02:45:27.627Z,20.20
2022-09-23T02:47:54.056Z,20.20
2022-09-23T02:50:20.465Z,20.20
2022-09-23T02:52:46.872Z,20.20
2022-09-23T02:55:13.294Z,20.20
2022-09-23T02:57:39.718Z,20.20
2022-09-23T03:00:06.177Z,20.20
2022-09-23T03:02:32.647Z,20.20
2022-09-23T03:04:59.136Z,20.20
2022-09-23T03:07:25.543Z,20.20
2022-09-23T03:09:51.956Z,20.20
2022-09-23T03:12:18.368Z,20.20
2022-09-23T03:14:44.772Z,20.20
2022-09-23T03:17:11.194Z,20.20
2022-09-23T03:19:37.585Z,20.20
2022-09-23T03:22:04.005Z,20.20
2022-09-23T03:24:30.403Z,20.10
2022-09-23T03:26:56.826Z,20.20
2022-09-23T03:29:23.230Z,20.20
2022-09-23T03:31:49.754Z,20.30
2022-09-23T03:34:16.194Z,20.20
2022-09-23T03:36:42.603Z,20.20
2022-09-23T03:39:09.005Z,20.20
2022-09-23T03:41:35.394Z,20.20
2022-09-23T03:44:01.810Z,20.20
2022-09-23T03:46:28.217Z,20.20
2022-09-23T03:48:54.619Z,20.20
2022-09-23T03:51:21.027Z,20.20
2022-09-23T03:53:47.445Z,20.20
2022-09-23T03:56:13.865Z,20.20
2022-09-23T03:58:40.281Z,20.20
2022-09-23T04:01:06.746Z,20.20
2022-09-23T04:03:33.229Z,20.20
2022-09-23T04:05:59.651Z,20.20
2022-09-23T04:08:26.084Z,20.20
2022-09-23T04:10:54.896Z,20.20
2022-09-23T04:13:21.466Z,20.20
2022-09-23T04:15:47.919Z,20.20
2022-09-23T04:18:14.333Z,20.20
2022-09-23T04:20:40.758Z,20.20
2022-09-23T04:23:07.166Z,20.20
2022-09-23T04:25:33.586Z,20.20
2022-09-23T04:28:00.031Z,20.20
2022-09-23T04:30:26.453Z,20.20
2022-09-23T04:32:52.880Z,20.20
2022-09-23T04:35:19.277Z,20.20
2022-09-23T04:37:45.711Z,20.20
2022-09-23T04:40:12.187Z,20.20
2022-09-23T04:42:38.599Z,20.20
2022-09-23T04:45:05.007Z,20.30
2022-09-23T04:47:31.404Z,20.20
2022-09-23T04:49:59.865Z,20.20
2022-09-23T04:52:26.468Z,20.20
2022-09-23T04:54:52.895Z,20.20
2022-09-23T04:57:19.294Z,20.20
2022-09-23T04:59:45.694Z,20.20
2022-09-23T05:02:12.123Z,20.20
2022-09-23T05:04:38.554Z,20.30
2022-09-23T05:07:04.982Z,20.30
2022-09-23T05:09:31.407Z,20.30
2022-09-23T05:11:57.818Z,20.30
2022-09-23T05:14:24.248Z,20.30
2022-09-23T05:16:50.655Z,20.30
2022-09-23T05:19:17.073Z,20.20
2022-09-23T05:21:43.485Z,20.20
2022-09-23T05:24:09.911Z,20.20
2022-09-23T05:26:36.320Z,20.20
2022-09-23T05:29:02.834Z,20.20
2022-09-23T05:31:29.378Z,20.20
2022-09-23T05:33:55.987Z,20.20
2022-09-23T05:36:22.383Z,20.20
2022-09-23T05:38:49.016Z,20.20
2022-09-23T05:41:15.422Z,20.30
2022-09-23T05:43:41.831Z,20.30
2022-09-23T05:46:08.651Z,20.30
2022-09-23T05:48:35.096Z,20.30
2022-09-23T05:51:01.547Z,20.40
2022-09-23T05:53:27.960Z,20.40
2022-09-23T05:55:54.437Z,20.30
2022-09-23T05:58:20.869Z,20.30
2022-09-23T06:00:47.283Z,20.40
2022-09-23T06:03:13.747Z,20.30
2022-09-23T06:05:40.225Z,20.30
2022-09-23T06:08:06.652Z,20.40
2022-09-23T06:10:33.133Z,20.40
2022-09-23T06:12:59.535Z,20.40
2022-09-23T06:15:25.944Z,20.40
2022-09-23T06:17:52.350Z,20.30
2022-09-23T06:20:18.749Z,20.40
2022-09-23T06:22:45.158Z,20.50
2022-09-23T06:25:11.557Z,20.40
2022-09-23T06:27:37.963Z,20.40
2022-09-23T06:30:04.375Z,20.40
2022-09-23T06:32:30.834Z,20.40
2022-09-23T06:34:57.221Z,20.40
2022-09-23T06:37:23.626Z,20.50
2022-09-23T06:39:50.044Z,20.40
2022-09-23T06:42:16.489Z,20.50
2022-09-23T06:44:42.906Z,20.40
2022-09-23T06:47:09.327Z,20.40
2022-09-23T06:49:35.736Z,20.40
2022-09-23T06:52:02.130Z,20.40
2022-09-23T06:54:28.530Z,20.40
2022-09-23T06:56:54.963Z,20.50
2022-09-23T06:59:21.376Z,20.40
2022-09-23T07:01:47.893Z,20.40
2022-09-23T07:04:14.401Z,20.40
2022-09-23T07:06:40.820Z,20.40
2022-09-23T07:09:07.229Z,20.40
2022-09-23T07:11:33.748Z,20.50
2022-09-23T07:14:00.150Z,20.40
2022-09-23T07:16:26.654Z,20.40
2022-09-23T07:18:53.105Z,20.40
2022-09-23T07:21:19.520Z,20.50
2022-09-23T07:23:45.934Z,20.50
2022-09-23T07:26:12.346Z,20.40
2022-09-23T07:28:38.775Z,20.50
2022-09-23T07:31:05.224Z,20.50
2022-09-23T07:33:33.108Z,20.50
2022-09-23T07:35:59.877Z,20.50
2022-09-23T07:38:26.317Z,20.50
2022-09-23T07:40:52.780Z,20.50
2022-09-23T07:43:19.271Z,20.60
2022-09-23T07:45:45.697Z,20.60
2022-09-23T07:48:12.094Z,20.60
2022-09-23T07:50:38.531Z,20.50
2022-09-23T07:53:04.932Z,20.60
2022-09-23T07:55:31.364Z,20.50
2022-09-23T07:57:57.770Z,20.60
2022-09-23T08:00:24.201Z,20.50
2022-09-23T08:02:52.994Z,20.50
2022-09-23T08:05:19.656Z,20.50
2022-09-23T08:07:46.061Z,20.50
2022-09-23T08:10:12.478Z,20.40
2022-09-23T08:12:38.883Z,20.40
2022-09-23T08:15:05.300Z,20.40
2022-09-23T08:17:31.704Z,20.40
2022-09-23T08:19:58.114Z,20.40
2022-09-23T08:22:24.531Z,20.40
2022-09-23T08:24:52.612Z,20.40
2022-09-23T08:27:20.966Z,20.40
2022-09-23T08:29:47.394Z,20.40
2022-09-23T08:32:13.804Z,20.40
2022-09-23T08:34:40.229Z,20.40
2022-09-23T08:37:06.637Z,20.40
2022-09-23T08:39:33.048Z,20.40
2022-09-23T08:41:59.453Z,20.30
2022-09-23T08:44:25.868Z,20.40
2022-09-23T08:46:52.293Z,20.30
2022-09-23T08:49:18.734Z,20.40
2022-09-23T08:51:45.136Z,20.40
2022-09-23T08:54:11.554Z,20.40
2022-09-23T08:56:37.980Z,20.30
2022-09-23T08:59:04.384Z,20.40
2022-09-23T09:01:30.840Z,20.30
2022-09-23T09:03:57.371Z,20.30
2022-09-23T09:06:23.790Z,20.30
2022-09-23T09:08:50.223Z,20.30
2022-09-23T09:11:16.639Z,20.20
2022-09-23T09:13:43.038Z,20.20
2022-09-23T09:16:09.495Z,20.20
2022-09-23T09:18:35.932Z,20.20
2022-09-23T09:21:02.356Z,20.20
2022-09-23T09:23:28.761Z,20.20
2022-09-23T09:25:55.169Z,20.20
2022-09-23T09:28:21.584Z,20.20
2022-09-23T09:30:48.754Z,20.10
2022-09-23T09:33:15.261Z,20.20
2022-09-23T09:35:41.652Z,20.20
2022-09-23T09:38:08.074Z,20.30
2022-09-23T09:40:34.537Z,20.30
2022-09-23T09:43:01.062Z,20.30
2022-09-23T09:45:27.469Z,20.30
2022-09-23T09:47:53.888Z,20.40
2022-09-23T09:50:20.290Z,20.40
2022-09-23T09:52:46.646Z,20.40
2022-09-23T09:55:13.061Z,20.40
2022-09-23T09:57:39.463Z,20.50
2022-09-23T10:00:05.868Z,20.50
2022-09-23T10:02:32.273Z,20.50
2022-09-23T10:04:58.685Z,20.50
2022-09-23T10:07:25.081Z,20.50
2022-09-23T10:09:51.503Z,20.60
2022-09-23T10:12:17.903Z,20.60
2022-09-23T10:14:44.307Z,20.50
2022-09-23T10:17:10.726Z,20.50
2022-09-23T10:19:37.145Z,20.70
2022-09-23T10:22:03.570Z,20.70
2022-09-23T10:24:29.974Z,20.60
2022-09-23T10:26:56.425Z,20.60
2022-09-23T10:29:22.835Z,20.60
2022-09-23T10:31:49.246Z,20.60
2022-09-23T10:34:15.640Z,20.60
2022-09-23T10:36:44.532Z,20.60
2022-09-23T10:39:11.057Z,20.60
2022-09-23T10:41:37.474Z,20.60
2022-09-23T10:44:03.919Z,20.60
2022-09-23T10:46:30.488Z,20.70
2022-09-23T10:48:56.990Z,20.60
2022-09-23T10:51:26.140Z,20.60
2022-09-23T10:53:52.892Z,20.60
2022-09-23T10:56:19.300Z,20.60
2022-09-23T10:58:45.710Z,20.60
2022-09-23T11:01:12.163Z,20.50
2022-09-23T11:03:38.597Z,20.50
2022-09-23T11:06:05.006Z,20.50
2022-09-23T11:08:31.416Z,20.50
2022-09-23T11:10:57.841Z,20.50
2022-09-23T11:13:24.263Z,20.50
2022-09-23T11:15:50.687Z,20.50
2022-09-23T11:18:17.100Z,20.50
2022-09-23T11:20:43.500Z,20.50
2022-09-23T11:23:09.905Z,20.50
2022-09-23T11:25:36.311Z,20.50
2022-09-23T11:28:02.710Z,20.40
2022-09-23T11:30:29.144Z,20.50
2022-09-23T11:32:55.648Z,20.40
2022-09-23T11:35:22.115Z,20.40
2022-09-23T11:37:48.517Z,20.40
2022-09-23T11:40:15.120Z,20.50
2022-09-23T11:42:41.602Z,20.40
2022-09-23T11:45:08.008Z,20.40
2022-09-23T11:47:39.480Z,20.40
2022-09-23T11:50:06.248Z,20.40
2022-09-23T11:52:32.641Z,20.40
2022-09-23T11:54:59.161Z,20.40
2022-09-23T11:57:25.587Z,20.40
2022-09-23T11:59:52.004Z,20.40
2022-09-23T12:02:21.197Z,20.40
2022-09-23T12:04:57.355Z,20.40
2022-09-23T12:07:24.405Z,20.40
2022-09-23T12:09:58.818Z,20.30
2022-09-23T12:12:27.232Z,20.30
2022-09-23T12:14:53.885Z,20.40
2022-09-23T12:17:20.326Z,20.30
2022-09-23T12:19:46.758Z,20.30
2022-09-23T12:22:13.170Z,20.30
2022-09-23T12:24:39.578Z,20.30
2022-09-23T12:27:05.998Z,20.30
2022-09-23T12:29:32.416Z,20.30
2022-09-23T12:31:58.821Z,20.30
2022-09-23T12:34:25.252Z,20.30
2022-09-23T12:36:51.676Z,20.30
2022-09-23T12:39:18.098Z,20.30
2022-09-23T12:41:44.505Z,20.20
2022-09-23T12:44:10.927Z,20.20
2022-09-23T12:46:37.333Z,20.30
2022-09-23T12:49:04.897Z,20.30
2022-09-23T12:51:31.320Z,20.20
2022-09-23T12:53:57.715Z,20.20
2022-09-23T12:56:24.130Z,20.20
2022-09-23T12:58:50.561Z,20.30
2022-09-23T13:01:17.061Z,20.30
2022-09-23T13:03:43.569Z,20.20
2022-09-23T13:06:09.972Z,20.20
2022-09-23T13:08:36.384Z,20.20
2022-09-23T13:11:02.804Z,20.20
2022-09-23T13:13:29.210Z,20.20
2022-09-23T13:15:55.620Z,20.20
2022-09-23T13:18:22.063Z,20.20
2022-09-23T13:20:48.469Z,20.30
2022-09-23T13:23:14.889Z,20.30
2022-09-23T13:25:41.307Z,20.30
2022-09-23T13:28:07.743Z,20.20
2022-09-23T13:30:34.217Z,20.30
2022-09-23T13:33:00.640Z,20.30
2022-09-23T13:35:27.051Z,20.20
2022-09-23T13:37:53.480Z,20.20
2022-09-23T13:40:20.028Z,20.20
2022-09-23T13:42:46.521Z,20.30
2022-09-23T13:45:12.927Z,20.20
2022-09-23T13:47:39.354Z,20.30
2022-09-23T13:50:05.767Z,20.30
2022-09-23T13:52:32.180Z,20.30
2022-09-23T13:54:58.602Z,20.30
2022-09-23T13:57:25.008Z,20.40
2022-09-23T13:59:51.421Z,20.40
2022-09-23T14:02:17.930Z,20.50
2022-09-23T14:04:44.359Z,20.40
2022-09-23T14:07:10.823Z,20.40
2022-09-23T14:09:37.229Z,20.50
2022-09-23T14:12:03.794Z,20.60
2022-09-23T14:14:30.265Z,20.50
2022-09-23T14:16:56.684Z,20.60
2022-09-23T14:19:23.115Z,20.50
2022-09-23T14:21:49.521Z,20.50
2022-09-23T14:24:15.938Z,20.50
2022-09-23T14:26:42.351Z,20.60
2022-09-23T14:29:08.806Z,20.60
2022-09-23T14:31:35.601Z,20.70
2022-09-23T14:34:02.134Z,20.80
2022-09-23T14:36:28.609Z,20.90
2022-09-23T14:38:55.062Z,20.90
2022-09-23T14:41:21.477Z,20.90
2022-09-23T14:43:47.909Z,20.90
2022-09-23T14:46:14.358Z,20.80
2022-09-23T14:48:40.809Z,20.70
2022-09-23T14:51:07.223Z,20.70
2022-09-23T14:53:33.666Z,20.60
2022-09-23T14:56:00.092Z,20.60
2022-09-23T14:58:26.510Z,20.50
2022-09-23T15:00:52.940Z,20.50
2022-09-23T15:03:19.427Z,20.50
2022-09-23T15:05:45.879Z,20.50
2022-09-23T15:08:12.325Z,20.50
2022-09-23T15:10:38.762Z,20.40
2022-09-23T15:13:05.171Z,20.40
2022-09-23T15:15:31.567Z,20.50
2022-09-23T15:17:57.974Z,20.40
2022-09-23T15:20:24.376Z,20.40
2022-09-23T15:22:50.788Z,20.40
2022-09-23T15:25:17.203Z,20.40
2022-09-23T15:27:43.620Z,20.50
2022-09-23T15:30:14.039Z,20.50
2022-09-23T15:32:41.387Z,20.50
2022-09-23T15:35:07.815Z,20.50
2022-09-23T15:37:36.275Z,20.50
2022-09-23T15:40:02.980Z,20.60
2022-09-23T15:42:29.411Z,20.60
2022-09-23T15:44:55.839Z,20.60
2022-09-23T15:47:22.256Z,20.60
2022-09-23T15:49:48.670Z,20.60
2022-09-23T15:52:15.094Z,20.60
2022-09-23T15:54:41.510Z,20.60
2022-09-23T15:57:07.937Z,20.60
2022-09-23T15:59:34.338Z,20.60
2022-09-23T16:02:00.830Z,20.60
2022-09-23T16:04:27.302Z,20.60
2022-09-23T16:06:53.702Z,20.60
2022-09-23T16:09:20.108Z,20.70
2022-09-23T16:11:46.518Z,20.70
2022-09-23T16:14:12.937Z,20.70
2022-09-23T16:16:39.371Z,20.70
2022-09-23T16:19:05.799Z,20.80
2022-09-23T16:21:32.208Z,20.90
2022-09-23T16:23:58.614Z,20.90
2022-09-23T16:26:25.266Z,20.90
2022-09-23T16:28:51.728Z,20.90
2022-09-23T16:31:18.204Z,20.90
2022-09-23T16:33:44.648Z,20.80
2022-09-23T16:36:11.049Z,20.70
2022-09-23T16:38:37.461Z,20.70
2022-09-23T16:41:03.920Z,20.70
2022-09-23T16:43:30.398Z,20.70
2022-09-23T16:45:56.828Z,20.60
2022-09-23T16:48:23.355Z,20.60
2022-09-23T16:50:49.787Z,20.50
2022-09-23T16:53:16.231Z,20.50
2022-09-23T16:55:42.660Z,20.50
2022-09-23T16:58:09.066Z,20.50
2022-09-23T17:00:35.510Z,20.50
2022-09-23T17:03:01.973Z,20.50
2022-09-23T17:05:28.371Z,20.50
2022-09-23T17:07:54.770Z,20.50
2022-09-23T17:10:21.174Z,20.50
2022-09-23T17:12:47.585Z,20.50
2022-09-23T17:15:14.013Z,20.40
2022-09-23T17:17:48.127Z,20.40
2022-09-23T17:20:14.574Z,20.40
2022-09-23T17:22:40.995Z,20.40
2022-09-23T17:25:07.416Z,20.40
2022-09-23T17:27:33.833Z,20.40
2022-09-23T17:30:00.246Z,20.30
2022-09-23T17:32:26.666Z,20.30
2022-09-23T17:34:53.074Z,20.40
2022-09-23T17:37:19.517Z,20.30
2022-09-23T17:39:45.918Z,20.30
2022-09-23T17:42:12.344Z,20.30
2022-09-23T17:44:38.794Z,20.30
2022-09-23T17:47:05.222Z,20.30
2022-09-23T17:49:31.625Z,20.30
2022-09-23T17:51:58.041Z,20.20
2022-09-23T17:54:24.446Z,20.30
2022-09-23T17:56:50.849Z,20.30
2022-09-23T17:59:17.262Z,20.30
2022-09-23T18:01:43.703Z,20.30
2022-09-23T18:04:10.192Z,20.30
2022-09-23T18:06:36.613Z,20.30
2022-09-23T18:09:03.145Z,20.20
2022-09-23T18:11:29.598Z,20.30
2022-09-23T18:13:56.002Z,20.20
2022-09-23T18:16:22.440Z,20.20
2022-09-23T18:18:48.931Z,20.20
2022-09-23T18:21:15.353Z,21.60
2022-09-23T18:23:41.757Z,20.20
2022-09-23T18:26:08.169Z,20.20
2022-09-23T18:28:35.083Z,20.20
2022-09-23T18:31:01.570Z,20.20
2022-09-23T18:33:27.981Z,20.20
2022-09-23T18:35:54.384Z,20.20
2022-09-23T18:38:20.793Z,20.20
2022-09-23T18:40:47.302Z,20.20
2022-09-23T18:43:15.015Z,20.20
2022-09-23T18:45:42.824Z,20.10
2022-09-23T18:48:09.264Z,20.20
2022-09-23T18:50:35.701Z,20.20
2022-09-23T18:53:02.132Z,20.10
2022-09-23T18:55:28.571Z,20.20
2022-09-23T18:57:54.968Z,20.20
2022-09-23T19:00:21.416Z,20.20
2022-09-23T19:02:47.833Z,20.20
2022-09-23T19:05:14.256Z,20.20
2022-09-23T19:07:40.732Z,20.20
2022-09-23T19:10:07.151Z,20.20
2022-09-23T19:12:33.580Z,20.20
2022-09-23T19:15:00.042Z,20.10
2022-09-23T19:17:26.480Z,20.10
2022-09-23T19:19:52.894Z,20.20
2022-09-23T19:22:19.316Z,20.20
2022-09-23T19:24:45.720Z,20.20
2022-09-23T19:27:12.139Z,20.20
2022-09-23T19:29:38.557Z,20.10
2022-09-23T19:32:04.949Z,20.10
2022-09-23T19:34:31.348Z,20.10
2022-09-23T19:36:57.771Z,20.20
2022-09-23T19:39:24.202Z,20.20
2022-09-23T19:41:50.601Z,20.20
2022-09-23T19:44:17.034Z,20.10
2022-09-23T19:46:43.464Z,20.20
2022-09-23T19:49:09.911Z,20.20
2022-09-23T19:51:36.313Z,20.20
2022-09-23T19:54:02.719Z,20.20
2022-09-23T19:56:29.147Z,20.20
2022-09-23T19:58:55.551Z,20.20
2022-09-23T20:01:22.013Z,20.20
2022-09-23T20:03:48.521Z,20.20
2022-09-23T20:06:14.948Z,20.20
2022-09-23T20:08:41.346Z,20.20
2022-09-23T20:11:07.775Z,20.20
2022-09-23T20:13:34.200Z,20.20
2022-09-23T20:16:00.667Z,20.20
2022-09-23T20:18:27.107Z,20.20
2022-09-23T20:20:53.498Z,20.30
2022-09-23T20:23:19.911Z,20.30
2022-09-23T20:25:46.324Z,20.20
2022-09-23T20:28:12.748Z,20.30
2022-09-23T20:30:39.143Z,20.30
2022-09-23T20:33:05.574Z,20.30
2022-09-23T20:35:31.978Z,20.30
2022-09-23T20:37:58.377Z,20.30
2022-09-23T20:40:24.852Z,20.30
2022-09-23T20:42:51.303Z,20.20
2022-09-23T20:45:17.707Z,20.20
2022-09-23T20:47:44.110Z,20.30
2022-09-23T20:50:10.512Z,20.20
2022-09-23T20:52:36.918Z,20.20
2022-09-23T20:55:03.338Z,20.30
2022-09-23T20:57:29.745Z,20.30
2022-09-23T20:59:56.173Z,20.20
2022-09-23T21:02:22.660Z,20.20
2022-09-23T21:04:49.123Z,20.20
2022-09-23T21:07:15.533Z,20.20
2022-09-23T21:09:41.954Z,20.30
2022-09-23T21:12:08.390Z,20.30
2022-09-23T21:14:34.813Z,20.20
2022-09-23T21:17:01.212Z,20.30
2022-09-23T21:19:27.635Z,20.20
2022-09-23T21:21:54.046Z,20.20
2022-09-23T21:27:06.850Z,20.20
2022-09-23T21:29:33.308Z,20.20
2022-09-23T21:31:59.705Z,20.30
2022-09-23T21:34:26.110Z,20.20
2022-09-23T21:36:52.566Z,20.20
2022-09-23T21:39:18.997Z,20.20
2022-09-23T21:41:45.466Z,20.20
2022-09-23T21:44:11.882Z,20.20
2022-09-23T21:46:38.404Z,20.20
2022-09-23T21:49:04.860Z,20.20
2022-09-23T21:51:31.269Z,20.20
2022-09-23T21:53:57.672Z,20.20
2022-09-23T21:56:24.086Z,20.20
2022-09-23T21:58:50.490Z,20.10
2022-09-23T22:01:17.007Z,20.10
2022-09-23T22:03:43.567Z,20.20
2022-09-23T22:06:10.022Z,20.10
2022-09-23T22:08:36.431Z,20.10
2022-09-23T22:11:02.870Z,20.10
2022-09-23T22:13:29.285Z,20.10
2022-09-23T22:15:55.740Z,20.10
2022-09-23T22:18:22.190Z,20.10
2022-09-23T22:20:48.599Z,20.10
2022-09-23T22:23:14.993Z,20.00
2022-09-23T22:25:41.402Z,20.00
2022-09-23T22:28:07.812Z,20.10
2022-09-23T22:30:34.209Z,20.10
2022-09-23T22:33:00.685Z,20.10
2022-09-23T22:35:27.112Z,20.00
2022-09-23T22:37:53.735Z,20.00
2022-09-23T22:40:20.205Z,20.00
2022-09-23T22:42:46.667Z,20.00
2022-09-23T22:45:13.091Z,20.10
2022-09-23T22:47:39.496Z,20.00
2022-09-23T22:50:05.915Z,20.00
2022-09-23T22:52:32.334Z,20.00
2022-09-23T22:54:58.775Z,20.00
2022-09-23T22:57:25.202Z,20.00
2022-09-23T22:59:51.649Z,20.10
2022-09-23T23:02:18.070Z,20.00
2022-09-23T23:04:44.468Z,20.00
2022-09-23T23:07:10.885Z,20.00
2022-09-23T23:09:37.306Z,20.00
2022-09-23T23:12:03.731Z,20.00
2022-09-23T23:14:30.149Z,20.00
2022-09-23T23:16:56.586Z,20.00
2022-09-23T23:19:22.985Z,20.00
2022-09-23T23:21:49.402Z,20.00
2022-09-23T23:24:15.804Z,20.00
2022-09-23T23:26:42.217Z,19.90
2022-09-23T23:29:08.618Z,19.90
2022-09-23T23:31:35.053Z,20.00
2022-09-23T23:34:01.500Z,20.00
2022-09-23T23:36:27.923Z,20.00
2022-09-23T23:38:54.342Z,19.90
2022-09-23T23:41:20.752Z,20.00
2022-09-23T23:43:47.178Z,20.00
2022-09-23T23:46:13.665Z,19.90
2022-09-23T23:48:40.121Z,19.90
2022-09-23T23:51:06.531Z,20.00
2022-09-23T23:53:32.942Z,20.00
2022-09-23T23:55:59.354Z,19.90
2022-09-23T23:58:25.768Z,19.90
